sensor_id;sensor_type;location;lat;lon;timestamp;P1;durP1;ratioP1;P2;durP2;ratioP2
78875;SDS011;68253;52.506;5.486;2024-02-23T00:01:58;6.80;;;0.80;;
78875;SDS011;68253;52.506;5.486;2024-02-23T00:04:25;9.25;;;1.20;;
78875;SDS011;68253;52.506;5.486;2024-02-23T00:06:51;7.03;;;1.10;;
78875;SDS011;68253;52.506;5.486;2024-02-23T00:09:17;6.75;;;1.00;;
78875;SDS011;68253;52.506;5.486;2024-02-23T00:11:43;7.72;;;0.98;;
78875;SDS011;68253;52.506;5.486;2024-02-23T00:14:10;11.10;;;1.30;;
78875;SDS011;68253;52.506;5.486;2024-02-23T00:16:41;10.55;;;1.00;;
78875;SDS011;68253;52.506;5.486;2024-02-23T00:19:08;14.00;;;1.55;;
78875;SDS011;68253;52.506;5.486;2024-02-23T00:21:35;9.35;;;1.33;;
78875;SDS011;68253;52.506;5.486;2024-02-23T00:24:02;7.78;;;1.20;;
78875;SDS011;68253;52.506;5.486;2024-02-23T00:26:28;9.32;;;2.08;;
78875;SDS011;68253;52.506;5.486;2024-02-23T00:28:55;10.30;;;1.40;;
78875;SDS011;68253;52.506;5.486;2024-02-23T00:31:21;11.90;;;1.23;;
78875;SDS011;68253;52.506;5.486;2024-02-23T00:33:47;10.85;;;1.27;;
78875;SDS011;68253;52.506;5.486;2024-02-23T00:36:13;7.65;;;1.13;;
78875;SDS011;68253;52.506;5.486;2024-02-23T00:38:40;12.93;;;1.95;;
78875;SDS011;68253;52.506;5.486;2024-02-23T00:41:06;12.45;;;1.30;;
78875;SDS011;68253;52.506;5.486;2024-02-23T00:43:37;12.70;;;1.70;;
78875;SDS011;68253;52.506;5.486;2024-02-23T00:46:10;8.35;;;1.00;;
78875;SDS011;68253;52.506;5.486;2024-02-23T00:48:36;12.00;;;1.45;;
78875;SDS011;68253;52.506;5.486;2024-02-23T00:51:02;8.25;;;1.15;;
78875;SDS011;68253;52.506;5.486;2024-02-23T00:53:30;10.80;;;1.20;;
78875;SDS011;68253;52.506;5.486;2024-02-23T00:55:57;11.88;;;1.98;;
78875;SDS011;68253;52.506;5.486;2024-02-23T00:58:24;7.82;;;1.05;;
78875;SDS011;68253;52.506;5.486;2024-02-23T01:00:50;8.75;;;1.10;;
78875;SDS011;68253;52.506;5.486;2024-02-23T01:03:16;11.15;;;1.60;;
78875;SDS011;68253;52.506;5.486;2024-02-23T01:05:42;7.85;;;1.08;;
78875;SDS011;68253;52.506;5.486;2024-02-23T01:08:10;10.98;;;1.45;;
78875;SDS011;68253;52.506;5.486;2024-02-23T01:10:37;10.32;;;1.10;;
78875;SDS011;68253;52.506;5.486;2024-02-23T01:13:03;8.45;;;1.00;;
78875;SDS011;68253;52.506;5.486;2024-02-23T01:15:30;6.38;;;0.90;;
78875;SDS011;68253;52.506;5.486;2024-02-23T01:17:56;10.10;;;1.40;;
78875;SDS011;68253;52.506;5.486;2024-02-23T01:20:22;12.05;;;1.02;;
78875;SDS011;68253;52.506;5.486;2024-02-23T01:22:48;6.25;;;0.80;;
78875;SDS011;68253;52.506;5.486;2024-02-23T01:25:15;11.07;;;1.73;;
78875;SDS011;68253;52.506;5.486;2024-02-23T01:27:41;10.48;;;1.25;;
78875;SDS011;68253;52.506;5.486;2024-02-23T01:30:07;3.63;;;0.80;;
78875;SDS011;68253;52.506;5.486;2024-02-23T01:32:34;7.63;;;0.90;;
78875;SDS011;68253;52.506;5.486;2024-02-23T01:35:00;15.38;;;1.35;;
78875;SDS011;68253;52.506;5.486;2024-02-23T01:37:27;11.98;;;1.27;;
78875;SDS011;68253;52.506;5.486;2024-02-23T01:39:53;11.77;;;1.75;;
78875;SDS011;68253;52.506;5.486;2024-02-23T01:42:19;9.25;;;1.02;;
78875;SDS011;68253;52.506;5.486;2024-02-23T01:44:45;10.82;;;1.15;;
78875;SDS011;68253;52.506;5.486;2024-02-23T01:47:11;9.27;;;1.75;;
78875;SDS011;68253;52.506;5.486;2024-02-23T01:49:37;8.32;;;1.15;;
78875;SDS011;68253;52.506;5.486;2024-02-23T01:52:04;9.68;;;0.93;;
78875;SDS011;68253;52.506;5.486;2024-02-23T01:54:30;10.90;;;1.80;;
78875;SDS011;68253;52.506;5.486;2024-02-23T01:56:57;12.10;;;1.23;;
78875;SDS011;68253;52.506;5.486;2024-02-23T01:59:25;9.98;;;0.90;;
78875;SDS011;68253;52.506;5.486;2024-02-23T02:01:51;8.63;;;1.30;;
78875;SDS011;68253;52.506;5.486;2024-02-23T02:04:18;7.45;;;1.02;;
78875;SDS011;68253;52.506;5.486;2024-02-23T02:06:45;7.80;;;0.82;;
78875;SDS011;68253;52.506;5.486;2024-02-23T02:09:12;9.52;;;1.20;;
78875;SDS011;68253;52.506;5.486;2024-02-23T02:11:47;7.50;;;0.90;;
78875;SDS011;68253;52.506;5.486;2024-02-23T02:14:14;11.27;;;1.30;;
78875;SDS011;68253;52.506;5.486;2024-02-23T02:16:41;12.15;;;1.48;;
78875;SDS011;68253;52.506;5.486;2024-02-23T02:19:07;9.23;;;1.38;;
78875;SDS011;68253;52.506;5.486;2024-02-23T02:21:33;11.00;;;1.23;;
78875;SDS011;68253;52.506;5.486;2024-02-23T02:23:59;5.00;;;0.90;;
78875;SDS011;68253;52.506;5.486;2024-02-23T02:26:25;8.85;;;0.80;;
78875;SDS011;68253;52.506;5.486;2024-02-23T02:28:52;9.65;;;0.93;;
78875;SDS011;68253;52.506;5.486;2024-02-23T02:31:18;5.80;;;1.00;;
78875;SDS011;68253;52.506;5.486;2024-02-23T02:33:44;8.95;;;0.90;;
78875;SDS011;68253;52.506;5.486;2024-02-23T02:36:10;8.10;;;0.98;;
78875;SDS011;68253;52.506;5.486;2024-02-23T02:38:37;10.65;;;1.20;;
78875;SDS011;68253;52.506;5.486;2024-02-23T02:41:03;7.80;;;1.10;;
78875;SDS011;68253;52.506;5.486;2024-02-23T02:43:30;6.38;;;1.10;;
78875;SDS011;68253;52.506;5.486;2024-02-23T02:45:56;7.60;;;0.70;;
78875;SDS011;68253;52.506;5.486;2024-02-23T02:48:23;8.02;;;1.38;;
78875;SDS011;68253;52.506;5.486;2024-02-23T02:50:50;6.85;;;0.90;;
78875;SDS011;68253;52.506;5.486;2024-02-23T02:53:17;7.95;;;0.95;;
78875;SDS011;68253;52.506;5.486;2024-02-23T02:55:43;9.30;;;1.27;;
78875;SDS011;68253;52.506;5.486;2024-02-23T02:58:11;7.03;;;0.82;;
78875;SDS011;68253;52.506;5.486;2024-02-23T03:00:38;7.65;;;1.00;;
78875;SDS011;68253;52.506;5.486;2024-02-23T03:03:04;9.27;;;0.90;;
78875;SDS011;68253;52.506;5.486;2024-02-23T03:05:30;6.72;;;0.80;;
78875;SDS011;68253;52.506;5.486;2024-02-23T03:07:56;6.05;;;0.80;;
78875;SDS011;68253;52.506;5.486;2024-02-23T03:10:23;7.47;;;0.80;;
78875;SDS011;68253;52.506;5.486;2024-02-23T03:12:49;8.48;;;0.98;;
78875;SDS011;68253;52.506;5.486;2024-02-23T03:15:15;7.28;;;0.80;;
78875;SDS011;68253;52.506;5.486;2024-02-23T03:17:41;9.75;;;0.90;;
78875;SDS011;68253;52.506;5.486;2024-02-23T03:20:08;7.47;;;1.02;;
78875;SDS011;68253;52.506;5.486;2024-02-23T03:22:35;7.32;;;0.90;;
78875;SDS011;68253;52.506;5.486;2024-02-23T03:25:01;7.30;;;0.80;;
78875;SDS011;68253;52.506;5.486;2024-02-23T03:27:33;6.80;;;1.02;;
78875;SDS011;68253;52.506;5.486;2024-02-23T03:30:04;6.55;;;0.80;;
78875;SDS011;68253;52.506;5.486;2024-02-23T03:32:31;9.30;;;1.13;;
78875;SDS011;68253;52.506;5.486;2024-02-23T03:35:02;5.60;;;0.85;;
78875;SDS011;68253;52.506;5.486;2024-02-23T03:37:29;7.15;;;1.20;;
78875;SDS011;68253;52.506;5.486;2024-02-23T03:39:55;7.40;;;0.95;;
78875;SDS011;68253;52.506;5.486;2024-02-23T03:42:21;9.00;;;0.80;;
78875;SDS011;68253;52.506;5.486;2024-02-23T03:44:47;6.82;;;0.80;;
78875;SDS011;68253;52.506;5.486;2024-02-23T03:47:14;8.13;;;1.05;;
78875;SDS011;68253;52.506;5.486;2024-02-23T03:49:40;7.50;;;0.80;;
78875;SDS011;68253;52.506;5.486;2024-02-23T03:52:06;7.20;;;0.85;;
78875;SDS011;68253;52.506;5.486;2024-02-23T03:54:32;5.78;;;1.08;;
78875;SDS011;68253;52.506;5.486;2024-02-23T03:56:58;5.15;;;0.70;;
78875;SDS011;68253;52.506;5.486;2024-02-23T03:59:24;8.43;;;0.93;;
78875;SDS011;68253;52.506;5.486;2024-02-23T04:01:50;5.20;;;1.00;;
78875;SDS011;68253;52.506;5.486;2024-02-23T04:04:16;4.03;;;0.73;;
78875;SDS011;68253;52.506;5.486;2024-02-23T04:06:43;6.13;;;0.80;;
78875;SDS011;68253;52.506;5.486;2024-02-23T04:09:09;8.52;;;1.30;;
78875;SDS011;68253;52.506;5.486;2024-02-23T04:11:35;7.32;;;0.90;;
78875;SDS011;68253;52.506;5.486;2024-02-23T04:14:01;7.95;;;0.90;;
78875;SDS011;68253;52.506;5.486;2024-02-23T04:16:27;6.18;;;0.82;;
78875;SDS011;68253;52.506;5.486;2024-02-23T04:18:54;6.47;;;1.05;;
78875;SDS011;68253;52.506;5.486;2024-02-23T04:21:20;8.25;;;1.10;;
78875;SDS011;68253;52.506;5.486;2024-02-23T04:23:46;4.43;;;0.95;;
78875;SDS011;68253;52.506;5.486;2024-02-23T04:26:12;6.95;;;0.98;;
78875;SDS011;68253;52.506;5.486;2024-02-23T04:28:39;6.50;;;1.08;;
78875;SDS011;68253;52.506;5.486;2024-02-23T04:31:08;8.27;;;1.45;;
78875;SDS011;68253;52.506;5.486;2024-02-23T04:33:35;10.43;;;1.13;;
78875;SDS011;68253;52.506;5.486;2024-02-23T04:36:03;7.88;;;1.10;;
78875;SDS011;68253;52.506;5.486;2024-02-23T04:38:30;8.15;;;1.40;;
78875;SDS011;68253;52.506;5.486;2024-02-23T04:40:57;6.65;;;1.27;;
78875;SDS011;68253;52.506;5.486;2024-02-23T04:43:24;5.82;;;1.17;;
78875;SDS011;68253;52.506;5.486;2024-02-23T04:45:50;7.45;;;1.40;;
78875;SDS011;68253;52.506;5.486;2024-02-23T04:48:17;9.93;;;1.75;;
78875;SDS011;68253;52.506;5.486;2024-02-23T04:50:43;10.10;;;1.30;;
78875;SDS011;68253;52.506;5.486;2024-02-23T04:53:09;9.38;;;1.17;;
78875;SDS011;68253;52.506;5.486;2024-02-23T04:55:35;10.98;;;1.63;;
78875;SDS011;68253;52.506;5.486;2024-02-23T04:58:01;10.05;;;1.58;;
78875;SDS011;68253;52.506;5.486;2024-02-23T05:00:27;8.05;;;1.15;;
78875;SDS011;68253;52.506;5.486;2024-02-23T05:02:59;6.22;;;1.10;;
78875;SDS011;68253;52.506;5.486;2024-02-23T05:07:57;6.47;;;0.98;;
78875;SDS011;68253;52.506;5.486;2024-02-23T05:10:23;6.82;;;1.38;;
78875;SDS011;68253;52.506;5.486;2024-02-23T05:12:50;5.03;;;1.35;;
78875;SDS011;68253;52.506;5.486;2024-02-23T05:15:16;9.02;;;1.63;;
78875;SDS011;68253;52.506;5.486;2024-02-23T05:17:42;8.00;;;1.20;;
78875;SDS011;68253;52.506;5.486;2024-02-23T05:20:08;9.18;;;1.67;;
78875;SDS011;68253;52.506;5.486;2024-02-23T05:22:36;6.45;;;1.20;;
78875;SDS011;68253;52.506;5.486;2024-02-23T05:25:02;7.85;;;1.40;;
78875;SDS011;68253;52.506;5.486;2024-02-23T05:27:30;8.15;;;1.45;;
78875;SDS011;68253;52.506;5.486;2024-02-23T05:29:56;9.02;;;1.35;;
78875;SDS011;68253;52.506;5.486;2024-02-23T05:32:23;11.23;;;1.92;;
78875;SDS011;68253;52.506;5.486;2024-02-23T05:34:49;13.07;;;1.98;;
78875;SDS011;68253;52.506;5.486;2024-02-23T05:37:18;8.63;;;1.70;;
78875;SDS011;68253;52.506;5.486;2024-02-23T05:39:44;11.38;;;2.13;;
78875;SDS011;68253;52.506;5.486;2024-02-23T05:42:14;8.70;;;1.88;;
78875;SDS011;68253;52.506;5.486;2024-02-23T05:44:43;8.00;;;1.73;;
78875;SDS011;68253;52.506;5.486;2024-02-23T05:47:10;9.10;;;1.98;;
78875;SDS011;68253;52.506;5.486;2024-02-23T05:49:36;8.18;;;1.85;;
78875;SDS011;68253;52.506;5.486;2024-02-23T05:52:02;8.70;;;1.80;;
78875;SDS011;68253;52.506;5.486;2024-02-23T05:54:29;8.10;;;1.75;;
78875;SDS011;68253;52.506;5.486;2024-02-23T05:56:55;9.10;;;2.20;;
78875;SDS011;68253;52.506;5.486;2024-02-23T05:59:21;9.65;;;1.85;;
78875;SDS011;68253;52.506;5.486;2024-02-23T06:01:47;6.68;;;1.30;;
78875;SDS011;68253;52.506;5.486;2024-02-23T06:04:13;8.23;;;1.67;;
78875;SDS011;68253;52.506;5.486;2024-02-23T06:06:42;11.10;;;1.70;;
78875;SDS011;68253;52.506;5.486;2024-02-23T06:09:09;8.10;;;1.73;;
78875;SDS011;68253;52.506;5.486;2024-02-23T06:11:35;10.43;;;2.10;;
78875;SDS011;68253;52.506;5.486;2024-02-23T06:14:01;7.57;;;1.50;;
78875;SDS011;68253;52.506;5.486;2024-02-23T06:16:27;4.40;;;1.27;;
78875;SDS011;68253;52.506;5.486;2024-02-23T06:18:53;8.05;;;1.42;;
78875;SDS011;68253;52.506;5.486;2024-02-23T06:21:20;7.28;;;1.40;;
78875;SDS011;68253;52.506;5.486;2024-02-23T06:23:46;5.22;;;1.30;;
78875;SDS011;68253;52.506;5.486;2024-02-23T06:26:12;7.50;;;1.98;;
78875;SDS011;68253;52.506;5.486;2024-02-23T06:28:38;6.85;;;1.60;;
78875;SDS011;68253;52.506;5.486;2024-02-23T06:31:07;5.70;;;1.70;;
78875;SDS011;68253;52.506;5.486;2024-02-23T06:33:33;7.80;;;1.90;;
78875;SDS011;68253;52.506;5.486;2024-02-23T06:36:00;8.95;;;1.92;;
78875;SDS011;68253;52.506;5.486;2024-02-23T06:38:29;9.88;;;2.20;;
78875;SDS011;68253;52.506;5.486;2024-02-23T06:41:01;11.10;;;2.42;;
78875;SDS011;68253;52.506;5.486;2024-02-23T06:43:27;8.05;;;2.15;;
78875;SDS011;68253;52.506;5.486;2024-02-23T06:45:53;9.18;;;1.98;;
78875;SDS011;68253;52.506;5.486;2024-02-23T06:48:20;8.75;;;2.05;;
78875;SDS011;68253;52.506;5.486;2024-02-23T06:50:46;7.18;;;2.22;;
78875;SDS011;68253;52.506;5.486;2024-02-23T06:53:12;11.43;;;2.42;;
78875;SDS011;68253;52.506;5.486;2024-02-23T06:55:38;6.78;;;1.52;;
78875;SDS011;68253;52.506;5.486;2024-02-23T06:58:04;8.18;;;1.95;;
78875;SDS011;68253;52.506;5.486;2024-02-23T07:00:32;5.57;;;1.77;;
78875;SDS011;68253;52.506;5.486;2024-02-23T07:02:58;9.25;;;2.50;;
78875;SDS011;68253;52.506;5.486;2024-02-23T07:05:26;8.10;;;1.83;;
78875;SDS011;68253;52.506;5.486;2024-02-23T07:07:52;6.35;;;1.77;;
78875;SDS011;68253;52.506;5.486;2024-02-23T07:10:19;5.28;;;1.60;;
78875;SDS011;68253;52.506;5.486;2024-02-23T07:12:46;8.35;;;1.83;;
78875;SDS011;68253;52.506;5.486;2024-02-23T07:15:12;9.25;;;2.10;;
78875;SDS011;68253;52.506;5.486;2024-02-23T07:17:38;6.43;;;1.77;;
78875;SDS011;68253;52.506;5.486;2024-02-23T07:20:04;8.20;;;1.88;;
78875;SDS011;68253;52.506;5.486;2024-02-23T07:22:31;6.82;;;1.50;;
78875;SDS011;68253;52.506;5.486;2024-02-23T07:24:58;9.05;;;2.30;;
78875;SDS011;68253;52.506;5.486;2024-02-23T07:27:24;6.63;;;1.90;;
78875;SDS011;68253;52.506;5.486;2024-02-23T07:29:51;5.45;;;1.30;;
78875;SDS011;68253;52.506;5.486;2024-02-23T07:32:17;6.57;;;1.67;;
78875;SDS011;68253;52.506;5.486;2024-02-23T07:34:43;5.65;;;1.40;;
78875;SDS011;68253;52.506;5.486;2024-02-23T07:37:09;7.32;;;1.42;;
78875;SDS011;68253;52.506;5.486;2024-02-23T07:39:36;6.80;;;1.60;;
78875;SDS011;68253;52.506;5.486;2024-02-23T07:42:02;7.65;;;1.55;;
78875;SDS011;68253;52.506;5.486;2024-02-23T07:44:28;8.75;;;1.40;;
78875;SDS011;68253;52.506;5.486;2024-02-23T07:46:54;5.80;;;1.30;;
78875;SDS011;68253;52.506;5.486;2024-02-23T07:49:21;5.45;;;0.95;;
78875;SDS011;68253;52.506;5.486;2024-02-23T07:51:47;5.80;;;1.13;;
78875;SDS011;68253;52.506;5.486;2024-02-23T07:54:14;6.97;;;1.40;;
78875;SDS011;68253;52.506;5.486;2024-02-23T07:56:40;6.45;;;1.58;;
78875;SDS011;68253;52.506;5.486;2024-02-23T07:59:06;4.20;;;1.08;;
78875;SDS011;68253;52.506;5.486;2024-02-23T08:01:32;4.32;;;1.35;;
78875;SDS011;68253;52.506;5.486;2024-02-23T08:03:58;4.47;;;1.02;;
78875;SDS011;68253;52.506;5.486;2024-02-23T08:06:24;6.35;;;1.30;;
78875;SDS011;68253;52.506;5.486;2024-02-23T08:08:51;5.28;;;0.90;;
78875;SDS011;68253;52.506;5.486;2024-02-23T08:11:19;3.97;;;0.90;;
78875;SDS011;68253;52.506;5.486;2024-02-23T08:13:45;5.97;;;1.00;;
78875;SDS011;68253;52.506;5.486;2024-02-23T08:16:11;7.60;;;1.13;;
78875;SDS011;68253;52.506;5.486;2024-02-23T08:18:37;6.72;;;1.05;;
78875;SDS011;68253;52.506;5.486;2024-02-23T08:21:03;6.88;;;1.00;;
78875;SDS011;68253;52.506;5.486;2024-02-23T08:23:31;6.57;;;1.13;;
78875;SDS011;68253;52.506;5.486;2024-02-23T08:25:57;5.72;;;0.98;;
78875;SDS011;68253;52.506;5.486;2024-02-23T08:28:24;5.57;;;1.08;;
78875;SDS011;68253;52.506;5.486;2024-02-23T08:30:50;8.43;;;1.33;;
78875;SDS011;68253;52.506;5.486;2024-02-23T08:33:16;4.75;;;0.80;;
78875;SDS011;68253;52.506;5.486;2024-02-23T08:35:42;5.38;;;1.00;;
78875;SDS011;68253;52.506;5.486;2024-02-23T08:38:09;6.63;;;0.93;;
78875;SDS011;68253;52.506;5.486;2024-02-23T08:40:35;5.70;;;1.00;;
78875;SDS011;68253;52.506;5.486;2024-02-23T08:43:02;7.95;;;1.33;;
78875;SDS011;68253;52.506;5.486;2024-02-23T08:45:28;7.00;;;1.30;;
78875;SDS011;68253;52.506;5.486;2024-02-23T08:47:54;6.22;;;0.98;;
78875;SDS011;68253;52.506;5.486;2024-02-23T08:50:20;4.03;;;0.77;;
78875;SDS011;68253;52.506;5.486;2024-02-23T08:52:46;5.53;;;0.95;;
78875;SDS011;68253;52.506;5.486;2024-02-23T08:55:12;7.07;;;1.13;;
78875;SDS011;68253;52.506;5.486;2024-02-23T08:57:39;7.05;;;1.00;;
78875;SDS011;68253;52.506;5.486;2024-02-23T09:00:05;5.18;;;0.80;;
78875;SDS011;68253;52.506;5.486;2024-02-23T09:02:32;8.73;;;1.00;;
78875;SDS011;68253;52.506;5.486;2024-02-23T09:05:01;4.18;;;1.10;;
78875;SDS011;68253;52.506;5.486;2024-02-23T09:07:27;4.68;;;1.05;;
78875;SDS011;68253;52.506;5.486;2024-02-23T09:09:53;10.13;;;1.77;;
78875;SDS011;68253;52.506;5.486;2024-02-23T09:12:19;5.82;;;1.10;;
78875;SDS011;68253;52.506;5.486;2024-02-23T09:14:46;8.73;;;1.20;;
78875;SDS011;68253;52.506;5.486;2024-02-23T09:17:12;7.55;;;1.40;;
78875;SDS011;68253;52.506;5.486;2024-02-23T09:19:38;5.78;;;1.20;;
78875;SDS011;68253;52.506;5.486;2024-02-23T09:22:04;6.32;;;1.48;;
78875;SDS011;68253;52.506;5.486;2024-02-23T09:24:30;7.40;;;1.20;;
78875;SDS011;68253;52.506;5.486;2024-02-23T09:26:56;7.78;;;1.50;;
78875;SDS011;68253;52.506;5.486;2024-02-23T09:29:22;16.15;;;1.65;;
78875;SDS011;68253;52.506;5.486;2024-02-23T09:31:49;7.47;;;1.10;;
78875;SDS011;68253;52.506;5.486;2024-02-23T09:34:15;5.30;;;1.45;;
78875;SDS011;68253;52.506;5.486;2024-02-23T09:36:41;5.53;;;1.10;;
78875;SDS011;68253;52.506;5.486;2024-02-23T09:39:07;8.10;;;1.40;;
78875;SDS011;68253;52.506;5.486;2024-02-23T09:41:33;5.13;;;1.30;;
78875;SDS011;68253;52.506;5.486;2024-02-23T09:44:01;7.75;;;1.13;;
78875;SDS011;68253;52.506;5.486;2024-02-23T09:46:27;6.13;;;1.30;;
78875;SDS011;68253;52.506;5.486;2024-02-23T09:48:54;5.25;;;0.93;;
78875;SDS011;68253;52.506;5.486;2024-02-23T09:51:21;9.38;;;1.27;;
78875;SDS011;68253;52.506;5.486;2024-02-23T09:53:49;7.70;;;1.05;;
78875;SDS011;68253;52.506;5.486;2024-02-23T09:56:17;3.70;;;0.95;;
78875;SDS011;68253;52.506;5.486;2024-02-23T09:58:46;7.68;;;1.13;;
78875;SDS011;68253;52.506;5.486;2024-02-23T10:01:14;6.53;;;1.17;;
78875;SDS011;68253;52.506;5.486;2024-02-23T10:03:44;5.43;;;0.90;;
78875;SDS011;68253;52.506;5.486;2024-02-23T10:06:10;8.07;;;1.20;;
78875;SDS011;68253;52.506;5.486;2024-02-23T10:08:36;8.88;;;1.45;;
78875;SDS011;68253;52.506;5.486;2024-02-23T10:11:03;7.30;;;1.30;;
78875;SDS011;68253;52.506;5.486;2024-02-23T10:13:29;8.73;;;1.33;;
78875;SDS011;68253;52.506;5.486;2024-02-23T10:15:55;10.57;;;1.17;;
78875;SDS011;68253;52.506;5.486;2024-02-23T10:18:22;6.50;;;1.10;;
78875;SDS011;68253;52.506;5.486;2024-02-23T10:20:49;5.70;;;1.20;;
78875;SDS011;68253;52.506;5.486;2024-02-23T10:23:16;6.40;;;1.20;;
78875;SDS011;68253;52.506;5.486;2024-02-23T10:25:43;7.25;;;1.17;;
78875;SDS011;68253;52.506;5.486;2024-02-23T10:28:09;7.47;;;1.40;;
78875;SDS011;68253;52.506;5.486;2024-02-23T10:30:36;7.10;;;1.65;;
78875;SDS011;68253;52.506;5.486;2024-02-23T10:33:04;6.15;;;1.23;;
78875;SDS011;68253;52.506;5.486;2024-02-23T10:35:31;9.65;;;1.48;;
78875;SDS011;68253;52.506;5.486;2024-02-23T10:38:00;6.45;;;1.13;;
78875;SDS011;68253;52.506;5.486;2024-02-23T10:40:29;5.53;;;1.13;;
78875;SDS011;68253;52.506;5.486;2024-02-23T10:42:57;6.05;;;1.02;;
78875;SDS011;68253;52.506;5.486;2024-02-23T10:45:27;5.85;;;1.30;;
78875;SDS011;68253;52.506;5.486;2024-02-23T10:47:55;7.20;;;1.15;;
78875;SDS011;68253;52.506;5.486;2024-02-23T10:50:22;5.20;;;1.23;;
78875;SDS011;68253;52.506;5.486;2024-02-23T10:52:50;7.10;;;1.23;;
78875;SDS011;68253;52.506;5.486;2024-02-23T10:55:17;5.70;;;1.17;;
78875;SDS011;68253;52.506;5.486;2024-02-23T10:57:47;9.70;;;1.40;;
78875;SDS011;68253;52.506;5.486;2024-02-23T11:00:15;11.90;;;1.38;;
78875;SDS011;68253;52.506;5.486;2024-02-23T11:02:45;6.90;;;1.30;;
78875;SDS011;68253;52.506;5.486;2024-02-23T11:05:15;7.53;;;1.48;;
78875;SDS011;68253;52.506;5.486;2024-02-23T11:07:42;4.07;;;1.10;;
78875;SDS011;68253;52.506;5.486;2024-02-23T11:10:08;5.95;;;1.38;;
78875;SDS011;68253;52.506;5.486;2024-02-23T11:12:38;12.38;;;3.45;;
78875;SDS011;68253;52.506;5.486;2024-02-23T11:15:04;11.27;;;2.50;;
78875;SDS011;68253;52.506;5.486;2024-02-23T11:17:31;8.82;;;2.28;;
78875;SDS011;68253;52.506;5.486;2024-02-23T11:19:58;12.82;;;3.47;;
78875;SDS011;68253;52.506;5.486;2024-02-23T11:22:32;10.75;;;3.03;;
78875;SDS011;68253;52.506;5.486;2024-02-23T11:25:00;8.88;;;1.60;;
78875;SDS011;68253;52.506;5.486;2024-02-23T11:27:31;3.92;;;1.15;;
78875;SDS011;68253;52.506;5.486;2024-02-23T11:30:05;5.72;;;1.00;;
78875;SDS011;68253;52.506;5.486;2024-02-23T11:35:05;5.10;;;1.00;;
78875;SDS011;68253;52.506;5.486;2024-02-23T11:37:32;4.97;;;1.23;;
78875;SDS011;68253;52.506;5.486;2024-02-23T11:40:09;4.68;;;1.00;;
78875;SDS011;68253;52.506;5.486;2024-02-23T11:42:38;5.15;;;1.13;;
78875;SDS011;68253;52.506;5.486;2024-02-23T11:45:06;6.93;;;1.60;;
78875;SDS011;68253;52.506;5.486;2024-02-23T11:47:33;7.95;;;1.48;;
78875;SDS011;68253;52.506;5.486;2024-02-23T11:49:59;6.30;;;1.67;;
78875;SDS011;68253;52.506;5.486;2024-02-23T11:52:25;7.53;;;1.40;;
78875;SDS011;68253;52.506;5.486;2024-02-23T11:54:51;5.95;;;1.35;;
78875;SDS011;68253;52.506;5.486;2024-02-23T11:57:18;6.90;;;1.15;;
78875;SDS011;68253;52.506;5.486;2024-02-23T11:59:44;6.85;;;1.27;;
78875;SDS011;68253;52.506;5.486;2024-02-23T12:02:13;6.03;;;1.20;;
78875;SDS011;68253;52.506;5.486;2024-02-23T12:04:39;7.32;;;1.45;;
78875;SDS011;68253;52.506;5.486;2024-02-23T12:07:05;7.30;;;1.20;;
78875;SDS011;68253;52.506;5.486;2024-02-23T12:09:31;5.13;;;1.00;;
78875;SDS011;68253;52.506;5.486;2024-02-23T12:11:57;5.85;;;1.27;;
78875;SDS011;68253;52.506;5.486;2024-02-23T12:14:24;6.18;;;1.02;;
78875;SDS011;68253;52.506;5.486;2024-02-23T12:16:51;6.07;;;0.90;;
78875;SDS011;68253;52.506;5.486;2024-02-23T12:19:18;4.50;;;1.00;;
78875;SDS011;68253;52.506;5.486;2024-02-23T12:21:47;8.73;;;1.13;;
78875;SDS011;68253;52.506;5.486;2024-02-23T12:24:13;6.32;;;1.10;;
78875;SDS011;68253;52.506;5.486;2024-02-23T12:26:39;4.85;;;1.20;;
78875;SDS011;68253;52.506;5.486;2024-02-23T12:29:05;7.90;;;1.38;;
78875;SDS011;68253;52.506;5.486;2024-02-23T12:31:32;9.00;;;1.27;;
78875;SDS011;68253;52.506;5.486;2024-02-23T12:33:58;3.70;;;1.00;;
78875;SDS011;68253;52.506;5.486;2024-02-23T12:36:24;6.82;;;0.95;;
78875;SDS011;68253;52.506;5.486;2024-02-23T12:38:50;4.63;;;1.00;;
78875;SDS011;68253;52.506;5.486;2024-02-23T12:41:16;3.67;;;0.93;;
78875;SDS011;68253;52.506;5.486;2024-02-23T12:43:43;5.05;;;0.88;;
78875;SDS011;68253;52.506;5.486;2024-02-23T12:46:09;6.75;;;0.80;;
78875;SDS011;68253;52.506;5.486;2024-02-23T12:48:37;3.50;;;1.20;;
78875;SDS011;68253;52.506;5.486;2024-02-23T12:51:03;7.15;;;1.00;;
78875;SDS011;68253;52.506;5.486;2024-02-23T12:53:31;7.75;;;1.40;;
78875;SDS011;68253;52.506;5.486;2024-02-23T12:55:58;4.45;;;1.00;;
78875;SDS011;68253;52.506;5.486;2024-02-23T12:58:25;7.97;;;0.90;;
78875;SDS011;68253;52.506;5.486;2024-02-23T13:00:51;4.90;;;0.80;;
78875;SDS011;68253;52.506;5.486;2024-02-23T13:03:17;6.50;;;1.30;;
78875;SDS011;68253;52.506;5.486;2024-02-23T13:05:44;10.73;;;3.47;;
78875;SDS011;68253;52.506;5.486;2024-02-23T13:08:10;3.88;;;0.73;;
78875;SDS011;68253;52.506;5.486;2024-02-23T13:10:36;4.95;;;0.80;;
78875;SDS011;68253;52.506;5.486;2024-02-23T13:13:02;5.20;;;0.70;;
78875;SDS011;68253;52.506;5.486;2024-02-23T13:15:28;5.30;;;1.10;;
78875;SDS011;68253;52.506;5.486;2024-02-23T13:17:54;4.45;;;0.65;;
78875;SDS011;68253;52.506;5.486;2024-02-23T13:20:22;4.55;;;0.52;;
78875;SDS011;68253;52.506;5.486;2024-02-23T13:22:49;4.03;;;0.80;;
78875;SDS011;68253;52.506;5.486;2024-02-23T13:25:16;4.28;;;0.63;;
78875;SDS011;68253;52.506;5.486;2024-02-23T13:27:42;4.63;;;0.80;;
78875;SDS011;68253;52.506;5.486;2024-02-23T13:30:08;5.72;;;0.70;;
78875;SDS011;68253;52.506;5.486;2024-02-23T13:32:34;3.63;;;0.60;;
78875;SDS011;68253;52.506;5.486;2024-02-23T13:35:01;3.63;;;0.73;;
78875;SDS011;68253;52.506;5.486;2024-02-23T13:37:29;4.85;;;0.70;;
78875;SDS011;68253;52.506;5.486;2024-02-23T13:39:55;6.90;;;0.77;;
78875;SDS011;68253;52.506;5.486;2024-02-23T13:42:22;5.65;;;0.75;;
78875;SDS011;68253;52.506;5.486;2024-02-23T13:44:48;4.35;;;0.70;;
78875;SDS011;68253;52.506;5.486;2024-02-23T13:47:14;4.68;;;0.70;;
78875;SDS011;68253;52.506;5.486;2024-02-23T13:49:40;5.78;;;0.68;;
78875;SDS011;68253;52.506;5.486;2024-02-23T13:52:06;6.63;;;0.70;;
78875;SDS011;68253;52.506;5.486;2024-02-23T13:54:32;5.82;;;0.82;;
78875;SDS011;68253;52.506;5.486;2024-02-23T13:56:58;2.85;;;0.52;;
78875;SDS011;68253;52.506;5.486;2024-02-23T13:59:25;9.52;;;1.30;;
78875;SDS011;68253;52.506;5.486;2024-02-23T14:01:51;5.60;;;0.90;;
78875;SDS011;68253;52.506;5.486;2024-02-23T14:04:17;7.38;;;0.93;;
78875;SDS011;68253;52.506;5.486;2024-02-23T14:06:43;4.63;;;0.70;;
78875;SDS011;68253;52.506;5.486;2024-02-23T14:09:09;2.75;;;0.60;;
78875;SDS011;68253;52.506;5.486;2024-02-23T14:11:36;4.20;;;0.57;;
78875;SDS011;68253;52.506;5.486;2024-02-23T14:14:02;3.67;;;0.65;;
78875;SDS011;68253;52.506;5.486;2024-02-23T14:16:29;4.72;;;0.85;;
78875;SDS011;68253;52.506;5.486;2024-02-23T14:18:55;3.28;;;0.60;;
78875;SDS011;68253;52.506;5.486;2024-02-23T14:21:21;5.20;;;0.88;;
78875;SDS011;68253;52.506;5.486;2024-02-23T14:23:50;6.22;;;0.82;;
78875;SDS011;68253;52.506;5.486;2024-02-23T14:26:17;4.78;;;0.98;;
78875;SDS011;68253;52.506;5.486;2024-02-23T14:28:43;3.92;;;0.85;;
78875;SDS011;68253;52.506;5.486;2024-02-23T14:31:09;9.25;;;1.13;;
78875;SDS011;68253;52.506;5.486;2024-02-23T14:33:35;5.57;;;0.82;;
78875;SDS011;68253;52.506;5.486;2024-02-23T14:36:01;6.00;;;0.90;;
78875;SDS011;68253;52.506;5.486;2024-02-23T14:38:28;5.65;;;0.85;;
78875;SDS011;68253;52.506;5.486;2024-02-23T14:40:54;2.92;;;0.70;;
78875;SDS011;68253;52.506;5.486;2024-02-23T14:43:20;7.22;;;0.90;;
78875;SDS011;68253;52.506;5.486;2024-02-23T14:45:46;5.47;;;0.95;;
78875;SDS011;68253;52.506;5.486;2024-02-23T14:48:13;6.65;;;0.70;;